Time;durP1;ratioP1;P1;durP2;ratioP2;P2;SDS_P1;SDS_P2;PMS_P1;PMS_P2;Temp;Humidity;BMP_temperature;BMP_pressure;BME280_temperature;BME280_humidity;BME280_pressure;Samples;Min_cycle;Max_cycle;Signal;HPM_P1;HPM_P2
2021/10/04 00:00:16;;;;;;;;;;;;;;;22.84;46.36;100841.38;5039345;27;97912;-81
2021/10/04 00:02:43;;;;;;;;;;;;;;;22.79;46.50;100838.19;5039560;27;97823;-83
2021/10/04 00:05:11;;;;;;;;;;;;;;;22.70;46.88;100839.81;5028681;27;96399;-83
2021/10/04 00:07:39;;;;;;;;;;;;;;;22.93;46.23;100848.66;5037228;27;96004;-82
2021/10/04 00:10:07;;;;;;;;;;;;;;;22.89;46.45;100858.00;5037632;27;98249;-81
2021/10/04 00:12:36;;;;;;;;;;;;;;;22.61;47.15;100854.06;5038204;27;96825;-85
2021/10/04 00:15:03;;;;;;;;;;;;;;;22.53;47.55;100857.38;5023399;27;96538;-85
2021/10/04 00:17:30;;;;;;;;;;;;;;;22.65;47.25;100864.44;5024627;28;96877;-86
2021/10/04 00:19:56;;;;;;;;;;;;;;;22.74;47.11;100864.69;5029430;27;96593;-85
2021/10/04 00:22:22;;;;;;;;;;;;;;;22.00;49.23;100864.50;5032639;28;98045;-86
2021/10/04 00:24:51;;;;;;;;;;;;;;;22.61;47.69;100873.75;5036440;28;96581;-87
2021/10/04 00:27:17;;;;;;;;;;;;;;;22.79;47.34;100874.09;5037388;28;96825;-86
2021/10/04 00:29:45;;;;;;;;;;;;;;;22.74;47.32;100878.16;5037485;28;100149;-86
2021/10/04 00:32:11;;;;;;;;;;;;;;;22.75;47.58;100880.72;5037264;28;97368;-85
2021/10/04 00:34:37;;;;;;;;;;;;;;;22.57;48.05;100879.53;5026893;28;96757;-84
2021/10/04 00:37:04;;;;;;;;;;;;;;;22.58;48.14;100882.09;5031249;28;96745;-86
2021/10/04 00:39:32;;;;;;;;;;;;;;;22.23;49.32;100878.78;5039059;28;99391;-85
2021/10/04 00:41:59;;;;;;;;;;;;;;;22.39;48.90;100875.66;5019673;28;97736;-85
2021/10/04 00:44:25;;;;;;;;;;;;;;;22.54;48.67;100879.78;5033050;28;96610;-85
2021/10/04 00:46:53;;;;;;;;;;;;;;;22.66;48.48;100876.06;5029141;28;96698;-86
2021/10/04 00:49:19;;;;;;;;;;;;;;;22.61;48.34;100871.06;5025056;28;99568;-86
2021/10/04 00:51:46;;;;;;;;;;;;;;;22.68;48.32;100876.81;5031958;28;97725;-86
2021/10/04 00:54:12;;;;;;;;;;;;;;;22.84;48.08;100873.72;5029725;28;96686;-86
2021/10/04 00:56:39;;;;;;;;;;;;;;;22.44;49.08;100884.25;5047258;28;96857;-86
2021/10/04 00:59:06;;;;;;;;;;;;;;;22.40;49.51;100888.16;5037974;28;98302;-87
2021/10/04 01:01:32;;;;;;;;;;;;;;;22.41;49.65;100884.47;5042663;28;99210;-85
2021/10/04 01:04:00;;;;;;;;;;;;;;;21.72;51.63;100890.06;5033427;28;96635;-86
2021/10/04 01:06:27;;;;;;;;;;;;;;;21.87;51.74;100894.19;5035680;28;96349;-87
2021/10/04 01:08:53;;;;;;;;;;;;;;;21.77;52.20;100903.13;5038252;27;96605;-87
2021/10/04 01:11:20;;;;;;;;;;;;;;;22.17;51.33;100912.44;5043954;27;98002;-86
2021/10/04 01:13:46;;;;;;;;;;;;;;;22.36;51.09;100898.34;5042133;27;96639;-87
2021/10/04 01:16:13;;;;;;;;;;;;;;;21.90;52.22;100909.25;5042842;27;97734;-83
2021/10/04 01:18:39;;;;;;;;;;;;;;;21.72;53.17;100916.09;5055607;27;99084;-87
2021/10/04 01:21:10;;;;;;;;;;;;;;;21.81;53.28;100913.53;5030810;28;97720;-85
2021/10/04 01:23:37;;;;;;;;;;;;;;;21.76;53.69;100915.72;4997903;28;96717;-86
2021/10/04 01:26:05;;;;;;;;;;;;;;;21.36;54.67;100922.50;5012084;28;96853;-87
2021/10/04 01:28:31;;;;;;;;;;;;;;;22.06;53.10;100930.41;5013557;28;99187;-87
2021/10/04 01:30:58;;;;;;;;;;;;;;;21.68;53.70;100931.59;5024136;28;99122;-86
2021/10/04 01:33:24;;;;;;;;;;;;;;;21.68;54.01;100934.28;5026013;28;96666;-87
2021/10/04 01:35:50;;;;;;;;;;;;;;;21.45;54.06;100937.94;5005147;28;96895;-86
2021/10/04 01:38:18;;;;;;;;;;;;;;;21.93;52.95;100945.78;5024603;28;98953;-86
2021/10/04 01:40:45;;;;;;;;;;;;;;;21.80;53.04;100951.28;5025040;28;98956;-88
2021/10/04 01:43:11;;;;;;;;;;;;;;;22.13;52.36;100954.03;5023683;28;97377;-86
2021/10/04 01:45:38;;;;;;;;;;;;;;;22.17;52.41;100962.72;5037103;27;96826;-87
2021/10/04 01:48:07;;;;;;;;;;;;;;;22.04;52.73;100967.38;5037356;28;96682;-85
2021/10/04 01:50:36;;;;;;;;;;;;;;;21.81;53.31;100971.84;5020842;28;100102;-84
2021/10/04 01:53:03;;;;;;;;;;;;;;;21.93;53.31;100976.25;5021665;28;96484;-86
2021/10/04 01:55:30;;;;;;;;;;;;;;;21.61;53.95;100978.78;5012577;28;96804;-85
2021/10/04 01:57:57;;;;;;;;;;;;;;;21.87;53.37;100988.34;5024316;28;99288;-85
2021/10/04 02:00:23;;;;;;;;;;;;;;;21.42;53.62;100987.41;5025446;28;98948;-85
2021/10/04 02:02:51;;;;;;;;;;;;;;;21.42;53.72;100989.25;5023335;28;96723;-86
2021/10/04 02:05:20;;;;;;;;;;;;;;;21.69;52.67;100994.31;5024408;28;97513;-85
2021/10/04 02:07:46;;;;;;;;;;;;;;;21.51;53.22;100993.06;5023022;28;98115;-86
2021/10/04 02:10:13;;;;;;;;;;;;;;;21.07;53.92;101008.00;5025673;28;98902;-85
2021/10/04 02:12:41;;;;;;;;;;;;;;;21.53;52.70;101016.16;5026963;28;96806;-84
2021/10/04 02:15:08;;;;;;;;;;;;;;;21.26;53.33;101015.59;5033675;28;96537;-85
2021/10/04 02:17:36;;;;;;;;;;;;;;;21.00;54.10;101012.16;5024842;28;100771;-84
2021/10/04 02:20:03;;;;;;;;;;;;;;;21.15;53.59;101008.28;5022350;28;99961;-84
2021/10/04 02:22:30;;;;;;;;;;;;;;;20.98;54.32;101009.56;5038108;27;96893;-84
2021/10/04 02:24:57;;;;;;;;;;;;;;;21.06;53.92;101006.31;5039556;28;96033;-86
2021/10/04 02:27:23;;;;;;;;;;;;;;;21.68;53.01;101016.81;5036209;28;97831;-86
2021/10/04 02:29:51;;;;;;;;;;;;;;;21.02;54.33;101019.09;5030395;28;98907;-86
2021/10/04 02:32:17;;;;;;;;;;;;;;;21.11;54.10;101024.75;5024322;28;97075;-88
2021/10/04 02:34:43;;;;;;;;;;;;;;;21.22;53.91;101022.16;5024435;28;96739;-85
2021/10/04 02:37:10;;;;;;;;;;;;;;;21.33;53.40;101030.28;5021918;28;99432;-87
2021/10/04 02:39:40;;;;;;;;;;;;;;;20.65;55.69;101038.91;5004859;28;98917;-86
2021/10/04 02:42:06;;;;;;;;;;;;;;;21.24;54.16;101045.25;5020382;28;96823;-87
2021/10/04 02:44:34;;;;;;;;;;;;;;;21.38;53.24;101031.63;5026356;28;96805;-86
2021/10/04 02:47:02;;;;;;;;;;;;;;;21.37;53.43;101032.59;5020972;28;98683;-87
2021/10/04 02:49:28;;;;;;;;;;;;;;;21.36;53.74;101035.41;5021822;28;97996;-86
2021/10/04 02:51:55;;;;;;;;;;;;;;;20.86;54.66;101039.16;5022680;28;96691;-86
2021/10/04 02:54:21;;;;;;;;;;;;;;;21.18;54.50;101036.81;5021332;28;96824;-85
2021/10/04 02:56:47;;;;;;;;;;;;;;;20.62;55.89;101045.34;5019349;28;99428;-86
2021/10/04 02:59:13;;;;;;;;;;;;;;;20.80;55.26;101051.22;5021234;28;99153;-86
2021/10/04 03:01:40;;;;;;;;;;;;;;;21.07;54.67;101051.84;5021284;28;97446;-85
2021/10/04 03:04:11;;;;;;;;;;;;;;;21.09;54.32;101054.41;5020454;28;97129;-86
2021/10/04 03:06:37;;;;;;;;;;;;;;;21.16;54.06;101054.84;5018097;28;96876;-86
2021/10/04 03:09:04;;;;;;;;;;;;;;;20.79;55.45;101062.06;5002420;28;98789;-85
2021/10/04 03:11:31;;;;;;;;;;;;;;;20.69;56.05;101075.28;5009142;28;96537;-84
2021/10/04 03:13:57;;;;;;;;;;;;;;;20.80;55.66;101072.72;5001013;28;96851;-86
2021/10/04 03:16:25;;;;;;;;;;;;;;;20.55;56.45;101080.78;5012292;28;99251;-86
2021/10/04 03:18:51;;;;;;;;;;;;;;;20.54;55.93;101074.59;5027323;28;99195;-86
2021/10/04 03:21:19;;;;;;;;;;;;;;;20.78;56.11;101076.47;5028781;28;96683;-87
2021/10/04 03:23:45;;;;;;;;;;;;;;;21.14;54.61;101072.88;5027967;28;96759;-87
2021/10/04 03:26:11;;;;;;;;;;;;;;;21.17;54.30;101075.38;5031738;28;100211;-86
2021/10/04 03:28:38;;;;;;;;;;;;;;;20.59;55.66;101076.94;5033466;28;98376;-86
2021/10/04 03:31:04;;;;;;;;;;;;;;;20.62;55.18;101090.97;5037974;27;95914;-86
2021/10/04 03:33:30;;;;;;;;;;;;;;;20.79;54.67;101089.78;5038043;27;96569;-86
2021/10/04 03:35:57;;;;;;;;;;;;;;;20.95;54.20;101109.16;5037785;28;99900;-86
2021/10/04 03:38:25;;;;;;;;;;;;;;;20.60;54.97;101102.81;5024973;28;98155;-83
2021/10/04 03:40:51;;;;;;;;;;;;;;;20.59;55.16;101109.16;5037765;28;96312;-86
2021/10/04 03:43:17;;;;;;;;;;;;;;;20.79;54.86;101121.16;5040010;28;96444;-86
2021/10/04 03:45:44;;;;;;;;;;;;;;;21.04;54.15;101126.44;5038891;28;97712;-87
2021/10/04 03:48:14;;;;;;;;;;;;;;;20.65;54.69;101131.06;5031012;28;96670;-87
2021/10/04 03:50:41;;;;;;;;;;;;;;;20.87;54.38;101124.97;5025628;28;96758;-87
2021/10/04 03:53:07;;;;;;;;;;;;;;;20.51;54.98;101123.13;5025552;28;96758;-87
2021/10/04 03:55:35;;;;;;;;;;;;;;;20.51;54.89;101130.31;5025250;28;98061;-87
2021/10/04 03:58:01;;;;;;;;;;;;;;;20.52;54.48;101124.84;5023148;28;98224;-86
2021/10/04 04:00:28;;;;;;;;;;;;;;;20.63;54.29;101119.56;5022709;28;96570;-85
2021/10/04 04:02:54;;;;;;;;;;;;;;;20.56;54.27;101129.00;5020225;28;96862;-85
2021/10/04 04:05:21;;;;;;;;;;;;;;;20.89;53.49;101139.16;5022091;28;98076;-85
2021/10/04 04:07:48;;;;;;;;;;;;;;;20.77;53.36;101140.06;5016019;28;99097;-87
2021/10/04 04:10:16;;;;;;;;;;;;;;;20.44;54.21;101147.81;5005075;28;96658;-85
2021/10/04 04:12:43;;;;;;;;;;;;;;;20.43;55.15;101152.31;5009882;28;96918;-87
2021/10/04 04:15:10;;;;;;;;;;;;;;;20.44;53.57;101151.34;5025180;28;99689;-86
2021/10/04 04:17:37;;;;;;;;;;;;;;;20.24;53.79;101158.09;5025013;28;97746;-86
2021/10/04 04:20:04;;;;;;;;;;;;;;;20.55;52.97;101164.00;5025335;28;96677;-86
2021/10/04 04:22:31;;;;;;;;;;;;;;;20.49;53.16;101177.88;5030567;28;96696;-86
2021/10/04 04:24:58;;;;;;;;;;;;;;;20.58;52.32;101177.22;5026752;28;97832;-85
2021/10/04 04:27:24;;;;;;;;;;;;;;;20.47;52.49;101167.25;5024214;28;99254;-86
2021/10/04 04:29:52;;;;;;;;;;;;;;;20.39;52.57;101166.94;5027997;28;96711;-84
2021/10/04 04:32:18;;;;;;;;;;;;;;;19.87;53.54;101183.03;5027439;28;96887;-86
2021/10/04 04:34:44;;;;;;;;;;;;;;;20.18;53.38;101184.47;5024354;28;99387;-85
2021/10/04 04:37:11;;;;;;;;;;;;;;;19.95;53.19;101198.59;5016476;28;98901;-86
2021/10/04 04:39:37;;;;;;;;;;;;;;;19.99;53.15;101206.34;5003414;28;96715;-86
2021/10/04 04:42:07;;;;;;;;;;;;;;;20.23;53.00;101206.47;5019477;28;96818;-85
2021/10/04 04:44:34;;;;;;;;;;;;;;;20.18;52.96;101201.44;5025778;28;99094;-86
2021/10/04 04:47:01;;;;;;;;;;;;;;;20.39;52.77;101190.22;5020546;28;98841;-84
2021/10/04 04:49:28;;;;;;;;;;;;;;;20.35;52.71;101194.94;5033305;27;96745;-84
2021/10/04 04:51:55;;;;;;;;;;;;;;;20.49;52.40;101194.84;5031524;27;96997;-86
2021/10/04 04:54:21;;;;;;;;;;;;;;;20.00;53.03;101189.28;5030178;28;99367;-85
2021/10/04 04:56:48;;;;;;;;;;;;;;;19.96;53.02;101205.66;5034501;28;98062;-87
2021/10/04 04:59:15;;;;;;;;;;;;;;;20.01;53.29;101225.88;5029346;28;96644;-87
2021/10/04 05:01:47;;;;;;;;;;;;;;;20.16;52.67;101224.81;5012530;28;96836;-86
2021/10/04 05:04:15;;;;;;;;;;;;;;;19.72;53.32;101226.94;5036154;28;99126;-88
2021/10/04 05:06:41;;;;;;;;;;;;;;;19.78;52.87;101231.91;5025124;28;98964;-88
2021/10/04 05:09:10;;;;;;;;;;;;;;;19.61;54.04;101241.06;5010411;28;96767;-87
2021/10/04 05:11:36;;;;;;;;;;;;;;;20.10;52.75;101243.16;5012522;28;97129;-87
2021/10/04 05:14:04;;;;;;;;;;;;;;;19.93;52.88;101241.63;5022339;28;98857;-86
2021/10/04 05:16:30;;;;;;;;;;;;;;;20.29;52.12;101241.81;5030221;28;100322;-85
2021/10/04 05:19:00;;;;;;;;;;;;;;;20.36;52.19;101242.28;5034751;28;96989;-87
2021/10/04 05:21:28;;;;;;;;;;;;;;;20.36;51.52;101249.47;5035435;28;96529;-86
2021/10/04 05:23:55;;;;;;;;;;;;;;;20.28;51.53;101255.34;5052344;28;97929;-88
2021/10/04 05:26:21;;;;;;;;;;;;;;;20.21;51.69;101249.53;5036237;28;99811;-85
2021/10/04 05:28:48;;;;;;;;;;;;;;;20.18;51.85;101254.25;5028718;28;96771;-87
2021/10/04 05:31:14;;;;;;;;;;;;;;;20.19;51.62;101264.88;5039527;27;96744;-86
2021/10/04 05:33:41;;;;;;;;;;;;;;;20.08;51.64;101264.75;5040206;27;97761;-86
2021/10/04 05:36:08;;;;;;;;;;;;;;;20.14;51.72;101258.97;5038618;28;97779;-85
2021/10/04 05:38:35;;;;;;;;;;;;;;;20.26;51.15;101257.28;5022565;28;96592;-84
2021/10/04 05:41:01;;;;;;;;;;;;;;;20.29;51.02;101260.59;5031580;27;96450;-83
2021/10/04 05:43:28;;;;;;;;;;;;;;;20.23;50.92;101246.72;5027757;28;97783;-83
2021/10/04 05:45:54;;;;;;;;;;;;;;;20.13;51.10;101246.50;5033462;27;98656;-83
2021/10/04 05:48:21;;;;;;;;;;;;;;;20.26;51.18;101252.75;5026750;28;97583;-84
2021/10/04 05:50:49;;;;;;;;;;;;;;;20.05;51.75;101277.47;5024863;28;96898;-85
2021/10/04 05:53:17;;;;;;;;;;;;;;;20.27;51.02;101288.50;5034865;28;97900;-89
2021/10/04 05:55:45;;;;;;;;;;;;;;;20.10;51.29;101288.75;5021636;28;98765;-85
2021/10/04 05:58:11;;;;;;;;;;;;;;;20.32;50.88;101294.41;5017879;28;97004;-86
2021/10/04 06:00:38;;;;;;;;;;;;;;;20.22;50.68;101293.31;4999721;28;96699;-86
2021/10/04 06:03:04;;;;;;;;;;;;;;;20.08;51.04;101280.84;5032900;28;97807;-84
2021/10/04 06:05:31;;;;;;;;;;;;;;;20.25;50.58;101288.59;5019866;28;99292;-85
2021/10/04 06:07:57;;;;;;;;;;;;;;;20.29;50.07;101274.00;5019368;28;99179;-84
2021/10/04 06:10:25;;;;;;;;;;;;;;;20.34;50.11;101280.94;5012388;28;96959;-84
2021/10/04 06:12:53;;;;;;;;;;;;;;;20.37;50.25;101278.03;5024787;28;100439;-85
2021/10/04 06:15:19;;;;;;;;;;;;;;;20.13;50.71;101280.53;5032810;28;98101;-85
2021/10/04 06:17:49;;;;;;;;;;;;;;;19.98;51.08;101285.06;5032020;28;96812;-83
2021/10/04 06:20:16;;;;;;;;;;;;;;;20.02;51.12;101300.00;5036152;28;96601;-84
2021/10/04 06:22:43;;;;;;;;;;;;;;;20.03;50.90;101296.34;5017294;28;99686;-89
2021/10/04 06:25:11;;;;;;;;;;;;;;;20.18;50.43;101300.72;5000391;28;97857;-86
2021/10/04 06:27:37;;;;;;;;;;;;;;;20.15;50.61;101298.22;5022847;28;97232;-87
2021/10/04 06:30:07;;;;;;;;;;;;;;;20.26;50.64;101300.19;5021919;28;97145;-86
2021/10/04 06:32:34;;;;;;;;;;;;;;;20.18;50.49;101306.06;5017431;28;98956;-87
2021/10/04 06:35:01;;;;;;;;;;;;;;;20.35;49.88;101309.50;5022595;28;98163;-87
2021/10/04 06:37:27;;;;;;;;;;;;;;;20.25;50.52;101319.94;5033246;28;96810;-86
2021/10/04 06:39:53;;;;;;;;;;;;;;;20.06;51.04;101324.81;5028594;27;96873;-86
2021/10/04 06:42:20;;;;;;;;;;;;;;;20.44;50.18;101336.56;5031304;27;97859;-85
2021/10/04 06:44:47;;;;;;;;;;;;;;;20.49;49.54;101338.94;5017103;28;99841;-86
2021/10/04 06:47:15;;;;;;;;;;;;;;;20.44;50.21;101339.25;5014597;28;97401;-83
2021/10/04 06:49:45;;;;;;;;;;;;;;;20.17;50.58;101343.75;5017726;28;97291;-90
2021/10/04 06:52:13;;;;;;;;;;;;;;;20.15;51.01;101351.88;5021578;28;101810;-85
2021/10/04 06:54:40;;;;;;;;;;;;;;;20.20;50.68;101343.53;5024646;28;97990;-86
2021/10/04 06:57:06;;;;;;;;;;;;;;;20.27;50.62;101343.03;5030330;28;96004;-87
2021/10/04 06:59:32;;;;;;;;;;;;;;;20.35;50.61;101352.44;5029348;28;95989;-85
2021/10/04 07:02:01;;;;;;;;;;;;;;;20.03;51.47;101357.19;5023824;28;99236;-89
2021/10/04 07:04:32;;;;;;;;;;;;;;;20.34;51.08;101348.91;5012619;28;97846;-87
2021/10/04 07:06:59;;;;;;;;;;;;;;;20.55;49.86;101346.56;5037161;27;96167;-88
2021/10/04 07:12:16;;;;;;;;;;;;;;;20.30;50.08;101344.66;5033215;27;98507;-86
2021/10/04 07:14:43;;;;;;;;;;;;;;;20.08;50.40;101339.84;5045659;27;97749;-83
2021/10/04 07:17:09;;;;;;;;;;;;;;;20.19;50.31;101340.00;5034741;27;97147;-86
2021/10/04 07:19:37;;;;;;;;;;;;;;;19.73;51.33;101370.78;5030419;28;98833;-85
2021/10/04 07:22:03;;;;;;;;;;;;;;;19.62;51.57;101367.91;5026701;28;101383;-88
2021/10/04 07:24:30;;;;;;;;;;;;;;;20.07;50.59;101375.69;5019900;28;99259;-87
2021/10/04 07:26:56;;;;;;;;;;;;;;;20.28;50.15;101374.25;5032662;28;96716;-87
2021/10/04 07:29:23;;;;;;;;;;;;;;;20.39;50.08;101370.06;5032608;28;97295;-87
2021/10/04 07:31:49;;;;;;;;;;;;;;;19.84;50.81;101374.47;5040055;27;97938;-87
2021/10/04 07:34:16;;;;;;;;;;;;;;;20.11;51.16;101381.69;5028123;28;97760;-86
2021/10/04 07:36:46;;;;;;;;;;;;;;;20.46;50.30;101382.09;5026750;28;96484;-87
2021/10/04 07:39:13;;;;;;;;;;;;;;;20.00;50.39;101389.59;5023825;28;97162;-85
2021/10/04 07:41:47;;;;;;;;;;;;;;;20.46;49.58;101398.22;5029983;28;99519;-86
2021/10/04 07:47:09;;;;;;;;;;;;;;;20.54;49.27;101412.88;4986744;27;96829;-87
2021/10/04 07:49:36;;;;;;;;;;;;;;;20.16;49.85;101406.41;5022289;28;97172;-86
2021/10/04 07:55:00;;;;;;;;;;;;;;;20.81;46.89;101394.00;5019335;28;98645;-87
2021/10/04 07:57:26;;;;;;;;;;;;;;;20.84;47.39;101401.00;5025503;28;96823;-85
2021/10/04 07:59:52;;;;;;;;;;;;;;;21.07;46.51;101395.75;5026550;28;97335;-87
2021/10/04 08:02:19;;;;;;;;;;;;;;;21.45;45.14;101397.66;5028563;28;99767;-88
2021/10/04 08:04:46;;;;;;;;;;;;;;;21.28;44.25;101392.59;5014629;28;98782;-90
2021/10/04 08:07:12;;;;;;;;;;;;;;;20.99;44.68;101411.56;5025060;28;96843;-88
2021/10/04 08:09:38;;;;;;;;;;;;;;;21.43;43.80;101407.66;5003121;28;96815;-87
2021/10/04 08:12:06;;;;;;;;;;;;;;;21.75;43.24;101411.59;5019642;28;99317;-85
2021/10/04 08:14:39;;;;;;;;;;;;;;;21.83;43.35;101406.53;5029544;27;98519;-89
2021/10/04 08:17:12;;;;;;;;;;;;;;;21.30;43.25;101417.53;5018210;28;96783;-87
2021/10/04 08:19:38;;;;;;;;;;;;;;;21.15;43.97;101432.88;5026044;28;96690;-87
2021/10/04 08:22:04;;;;;;;;;;;;;;;21.24;44.14;101443.03;5015937;28;98122;-85
2021/10/04 08:24:49;;;;;;;;;;;;;;;20.67;45.33;101434.38;5034296;27;99259;-87
2021/10/04 08:27:17;;;;;;;;;;;;;;;20.98;44.62;101444.78;5033976;28;96419;-87
2021/10/04 08:29:43;;;;;;;;;;;;;;;20.77;45.40;101448.03;5021319;28;97218;-89
2021/10/04 08:32:09;;;;;;;;;;;;;;;21.15;45.25;101446.28;5022631;28;98308;-87
2021/10/04 08:34:36;;;;;;;;;;;;;;;21.17;45.23;101449.78;5014496;28;99210;-88
2021/10/04 08:37:03;;;;;;;;;;;;;;;21.26;44.00;101448.31;5013466;28;97145;-89
2021/10/04 08:39:29;;;;;;;;;;;;;;;21.43;44.43;101443.47;5023788;28;96690;-87
2021/10/04 08:41:56;;;;;;;;;;;;;;;21.29;44.44;101451.63;5020904;28;99116;-86
2021/10/04 08:44:24;;;;;;;;;;;;;;;21.19;44.75;101455.06;5003667;28;99105;-87
2021/10/04 08:46:50;;;;;;;;;;;;;;;21.33;43.72;101452.28;5027736;28;97232;-87
2021/10/04 08:49:17;;;;;;;;;;;;;;;21.25;44.01;101465.38;5007821;28;97027;-86
2021/10/04 08:51:44;;;;;;;;;;;;;;;21.24;44.19;101471.72;5016583;28;99638;-86
2021/10/04 08:54:11;;;;;;;;;;;;;;;21.14;43.97;101471.44;5012427;28;98843;-88
2021/10/04 08:56:38;;;;;;;;;;;;;;;21.21;43.93;101466.53;5021978;28;96773;-87
2021/10/04 08:59:05;;;;;;;;;;;;;;;21.16;44.15;101461.50;5028021;28;96876;-87
2021/10/04 09:01:37;;;;;;;;;;;;;;;21.09;43.91;101477.16;5019644;28;99350;-86
2021/10/04 09:04:04;;;;;;;;;;;;;;;20.98;44.08;101479.69;5022044;28;96830;-86
2021/10/04 09:06:31;;;;;;;;;;;;;;;20.68;44.82;101479.03;5036924;28;96808;-86
2021/10/04 09:08:58;;;;;;;;;;;;;;;20.51;45.56;101472.13;5021232;28;96983;-87
2021/10/04 09:11:32;;;;;;;;;;;;;;;20.75;45.32;101477.69;5034226;28;96876;-86
2021/10/04 09:14:02;;;;;;;;;;;;;;;20.95;45.48;101477.22;5030993;28;99097;-85
2021/10/04 09:16:44;;;;;;;;;;;;;;;20.91;45.58;101474.84;5031041;27;96168;-85
2021/10/04 09:19:19;;;;;;;;;;;;;;;21.16;45.12;101468.69;5033873;28;96593;-86
2021/10/04 09:22:08;;;;;;;;;;;;;;;20.95;45.48;101470.97;5025818;28;98967;-86
2021/10/04 09:24:35;;;;;;;;;;;;;;;21.12;45.09;101472.53;5015925;28;97776;-84
2021/10/04 09:27:01;;;;;;;;;;;;;;;21.06;44.90;101477.38;5016134;28;97555;-85
2021/10/04 09:29:46;;;;;;;;;;;;;;;21.22;45.06;101479.88;5006424;28;96825;-85
2021/10/04 09:32:12;;;;;;;;;;;;;;;20.95;45.39;101474.53;5024680;28;98450;-85
2021/10/04 09:34:40;;;;;;;;;;;;;;;20.71;45.41;101478.84;5008790;28;98729;-86
2021/10/04 09:37:07;;;;;;;;;;;;;;;20.89;45.43;101482.13;5015728;28;97183;-85
2021/10/04 09:39:33;;;;;;;;;;;;;;;20.47;45.95;101473.28;5023553;28;96891;-84
2021/10/04 09:42:05;;;;;;;;;;;;;;;20.68;46.25;101489.78;5018631;28;100247;-84
2021/10/04 09:44:51;;;;;;;;;;;;;;;20.86;45.63;101487.72;5029344;28;99236;-84
2021/10/04 09:47:20;;;;;;;;;;;;;;;20.43;45.70;101490.53;5025274;28;97461;-84
2021/10/04 09:49:51;;;;;;;;;;;;;;;19.69;47.26;101506.81;5025745;28;96673;-84
2021/10/04 09:52:18;;;;;;;;;;;;;;;19.91;47.13;101514.41;5013737;28;101403;-86
2021/10/04 09:54:48;;;;;;;;;;;;;;;20.55;45.96;101516.56;5027584;28;97635;-84
2021/10/04 09:57:17;;;;;;;;;;;;;;;20.57;45.73;101519.16;5012426;28;98040;-85
2021/10/04 09:59:44;;;;;;;;;;;;;;;20.91;45.19;101529.44;5013964;28;97016;-81
2021/10/04 10:02:13;;;;;;;;;;;;;;;20.75;45.12;101528.69;5025589;28;99635;-84
2021/10/04 10:04:40;;;;;;;;;;;;;;;20.77;44.94;101525.94;5010217;28;100911;-85
2021/10/04 10:07:10;;;;;;;;;;;;;;;20.72;44.34;101523.56;5020626;28;96826;-84
2021/10/04 10:09:36;;;;;;;;;;;;;;;20.77;44.69;101518.72;5025507;28;96921;-86
2021/10/04 10:12:03;;;;;;;;;;;;;;;21.00;43.75;101506.47;5021596;28;97670;-86
2021/10/04 10:14:38;;;;;;;;;;;;;;;21.23;43.73;101496.88;5031600;28;100113;-88
2021/10/04 10:17:08;;;;;;;;;;;;;;;21.42;43.15;101497.34;5028687;27;96605;-87
2021/10/04 10:19:37;;;;;;;;;;;;;;;21.47;43.30;101490.66;5027534;28;96908;-88
2021/10/04 10:22:13;;;;;;;;;;;;;;;21.46;42.67;101480.88;5022653;28;100371;-87
2021/10/04 10:24:40;;;;;;;;;;;;;;;21.80;42.17;101481.22;5015101;28;98053;-86
2021/10/04 10:29:48;;;;;;;;;;;;;;;21.07;43.39;101487.13;5016890;28;96844;-87
2021/10/04 10:32:18;;;;;;;;;;;;;;;21.53;42.39;101493.94;5029869;28;100284;-84
2021/10/04 10:34:50;;;;;;;;;;;;;;;21.95;41.72;101495.41;5019788;28;97735;-87
2021/10/04 10:37:18;;;;;;;;;;;;;;;22.02;41.41;101502.09;5024967;28;96687;-84
2021/10/04 10:39:47;;;;;;;;;;;;;;;21.72;42.32;101508.69;5006270;28;97190;-88
2021/10/04 10:42:15;;;;;;;;;;;;;;;21.27;43.19;101519.88;5021591;28;99474;-89
2021/10/04 10:45:04;;;;;;;;;;;;;;;20.98;42.85;101520.00;5022768;28;97105;-87
2021/10/04 10:47:49;;;;;;;;;;;;;;;21.41;42.40;101511.75;5016400;28;97617;-88
2021/10/04 10:50:24;;;;;;;;;;;;;;;21.35;42.53;101518.41;5036783;28;96968;-89
2021/10/04 10:53:03;;;;;;;;;;;;;;;21.34;42.99;101521.19;5022136;28;101837;-87
2021/10/04 10:55:30;;;;;;;;;;;;;;;21.23;43.16;101526.44;5019286;28;99653;-88
2021/10/04 10:58:02;;;;;;;;;;;;;;;21.47;42.83;101520.25;5021895;28;97543;-83
2021/10/04 11:03:11;;;;;;;;;;;;;;;21.70;42.61;101513.28;5036692;28;98798;-89
2021/10/04 11:05:51;;;;;;;;;;;;;;;21.65;42.49;101511.91;5031055;27;96538;-89
2021/10/04 11:08:19;;;;;;;;;;;;;;;21.61;42.60;101518.44;5032765;27;97713;-89
2021/10/04 11:11:01;;;;;;;;;;;;;;;21.25;42.72;101516.47;5035174;27;96097;-87
2021/10/04 11:13:28;;;;;;;;;;;;;;;21.53;42.61;101542.31;5019306;27;97901;-83
2021/10/04 11:15:55;;;;;;;;;;;;;;;20.96;43.17;101543.41;5037759;28;98668;-82
2021/10/04 11:18:22;;;;;;;;;;;;;;;21.27;42.51;101527.94;5036542;27;95957;-87
2021/10/04 11:20:49;;;;;;;;;;;;;;;21.20;42.76;101529.34;5033114;27;95998;-86
2021/10/04 11:23:16;;;;;;;;;;;;;;;21.47;42.74;101528.31;5025026;27;96895;-87
2021/10/04 11:25:44;;;;;;;;;;;;;;;21.56;42.70;101524.13;5029068;27;98042;-85
2021/10/04 11:28:13;;;;;;;;;;;;;;;21.69;43.11;101518.78;5022562;27;102809;-85
2021/10/04 11:30:58;;;;;;;;;;;;;;;21.63;43.41;101525.44;5021140;28;95907;-86
2021/10/04 11:33:25;;;;;;;;;;;;;;;21.60;43.37;101517.56;5030488;27;100273;-85
2021/10/04 11:35:56;;;;;;;;;;;;;;;21.63;43.27;101525.44;5039084;28;99238;-86
2021/10/04 11:41:08;;;;;;;;;;;;;;;21.64;43.60;101527.16;5027397;28;97677;-85
2021/10/04 11:43:40;;;;;;;;;;;;;;;21.73;43.40;101531.88;5040920;28;97845;-87
2021/10/04 11:46:17;;;;;;;;;;;;;;;21.59;42.80;101537.38;5021727;28;98860;-88
2021/10/04 11:48:46;;;;;;;;;;;;;;;21.55;43.19;101541.25;5005124;28;96831;-89
2021/10/04 11:51:18;;;;;;;;;;;;;;;21.52;43.41;101545.97;5022767;28;97163;-87
2021/10/04 11:53:44;;;;;;;;;;;;;;;21.30;43.05;101535.81;5014019;28;99320;-87
2021/10/04 11:56:17;;;;;;;;;;;;;;;21.33;43.42;101543.69;5016003;28;98875;-87
2021/10/04 11:58:48;;;;;;;;;;;;;;;21.13;43.86;101545.00;5010866;28;97651;-87
2021/10/04 12:01:27;;;;;;;;;;;;;;;21.29;43.49;101536.78;5014572;28;96873;-86
2021/10/04 12:03:58;;;;;;;;;;;;;;;21.29;43.91;101551.09;5030978;28;98197;-84
2021/10/04 12:06:27;;;;;;;;;;;;;;;21.11;43.74;101552.28;5008628;28;98460;-84
2021/10/04 12:09:02;;;;;;;;;;;;;;;21.41;43.09;101555.63;5026773;28;96825;-86
2021/10/04 12:11:30;;;;;;;;;;;;;;;21.64;42.94;101551.38;5034864;27;96594;-88
2021/10/04 12:13:57;;;;;;;;;;;;;;;21.57;43.34;101554.59;5030870;27;96933;-86
2021/10/04 12:16:27;;;;;;;;;;;;;;;21.50;42.94;101540.69;5035159;27;98016;-87
2021/10/04 12:18:56;;;;;;;;;;;;;;;21.55;43.48;101541.25;5037826;28;95963;-89
2021/10/04 12:21:24;;;;;;;;;;;;;;;21.49;43.65;101541.66;5020416;28;96621;-88
2021/10/04 12:24:07;;;;;;;;;;;;;;;21.42;43.52;101545.72;5013190;28;99938;-88
2021/10/04 12:29:33;;;;;;;;;;;;;;;21.17;43.70;101556.41;5039564;28;96486;-88
2021/10/04 12:32:14;;;;;;;;;;;;;;;20.97;44.42;101558.56;5042201;28;96776;-89
2021/10/04 12:34:48;;;;;;;;;;;;;;;21.17;44.48;101564.47;5029533;28;98123;-90
2021/10/04 12:37:24;;;;;;;;;;;;;;;21.20;44.96;101562.44;5029612;28;96918;-88
2021/10/04 12:39:51;;;;;;;;;;;;;;;21.10;45.60;101561.31;5038251;28;96659;-88
2021/10/04 12:42:19;;;;;;;;;;;;;;;21.21;45.10;101555.25;5033251;28;97245;-86
2021/10/04 12:44:56;;;;;;;;;;;;;;;21.28;44.72;101553.88;5034399;28;97458;-87
2021/10/04 12:47:22;;;;;;;;;;;;;;;21.05;45.37;101556.25;5027593;28;99129;-85
2021/10/04 12:49:55;;;;;;;;;;;;;;;20.79;46.05;101543.69;5032566;28;96580;-86
2021/10/04 12:52:25;;;;;;;;;;;;;;;20.82;45.61;101551.50;5018986;27;96872;-86
2021/10/04 12:54:53;;;;;;;;;;;;;;;20.82;46.22;101556.88;5024605;27;96993;-83
2021/10/04 12:57:26;;;;;;;;;;;;;;;20.87;45.90;101560.13;5040324;27;98119;-86
2021/10/04 12:59:57;;;;;;;;;;;;;;;20.93;45.90;101573.19;5047654;28;96043;-87